createdAt,value
2019-03-19T00:01:23.191Z,-1.53
2019-03-19T00:11:23.280Z,-1.40
2019-03-19T00:21:23.268Z,-1.35
2019-03-19T00:31:23.231Z,-1.60
2019-03-19T00:41:23.219Z,-2.12
2019-03-19T00:51:23.279Z,-2.13
2019-03-19T01:01:23.230Z,-2.14
2019-03-19T01:11:23.191Z,-1.83
2019-03-19T01:21:24.061Z,-1.41
2019-03-19T01:31:23.204Z,-1.58
2019-03-19T01:41:23.190Z,-1.97
2019-03-19T01:51:23.283Z,-1.93
2019-03-19T02:01:23.157Z,-1.89
2019-03-19T02:11:23.221Z,-2.09
2019-03-19T02:21:23.879Z,-2.39
2019-03-19T02:31:23.207Z,-2.44
2019-03-19T02:41:23.211Z,-2.23
2019-03-19T02:51:23.159Z,-2.07
2019-03-19T03:01:23.158Z,-2.13
2019-03-19T03:11:23.133Z,-2.19
2019-03-19T03:21:23.263Z,-2.17
2019-03-19T03:31:23.350Z,-2.04
2019-03-19T03:41:30.422Z,-2.37
2019-03-19T03:51:23.174Z,-2.67
2019-03-19T04:01:23.185Z,-2.77
2019-03-19T04:11:23.184Z,-3.03
2019-03-19T04:21:23.187Z,-2.97
2019-03-19T04:31:23.256Z,-2.93
2019-03-19T04:41:23.104Z,-2.81
2019-03-19T04:51:23.196Z,-2.54
2019-03-19T05:01:23.152Z,-2.67
2019-03-19T05:11:23.095Z,-2.95
2019-03-19T05:21:23.020Z,-3.01
2019-03-19T05:31:23.510Z,-2.72
2019-03-19T05:41:23.055Z,-2.83
2019-03-19T05:51:23.099Z,-2.73
2019-03-19T06:01:23.202Z,-2.53
2019-03-19T06:11:23.220Z,-2.32
2019-03-19T06:21:23.023Z,-1.84
2019-03-19T06:31:23.104Z,-1.10
2019-03-19T06:41:23.225Z,0.19
2019-03-19T06:51:23.233Z,1.68
2019-03-19T07:01:23.095Z,2.65
2019-03-19T07:11:24.471Z,2.43
2019-03-19T07:21:23.118Z,3.50
2019-03-19T07:31:30.824Z,4.11
2019-03-19T07:41:23.087Z,5.94
2019-03-19T07:51:24.155Z,5.94
2019-03-19T08:01:24.715Z,6.97
2019-03-19T08:11:24.169Z,7.50
2019-03-19T08:21:23.168Z,7.28
2019-03-19T08:31:23.073Z,8.15
2019-03-19T08:41:23.085Z,8.10
2019-03-19T08:51:25.650Z,9.76
2019-03-19T09:01:24.140Z,9.62
2019-03-19T09:11:24.744Z,9.26
2019-03-19T09:21:23.227Z,10.40
2019-03-19T09:31:23.179Z,11.61
2019-03-19T09:41:23.288Z,11.10
2019-03-19T09:51:23.140Z,11.98
2019-03-19T10:01:23.748Z,12.03
2019-03-19T10:11:23.193Z,12.55
2019-03-19T10:21:23.776Z,13.20
2019-03-19T10:31:23.824Z,13.41
2019-03-19T10:41:23.803Z,13.49
2019-03-19T10:51:23.206Z,14.21
2019-03-19T11:01:23.204Z,14.03
2019-03-19T11:11:23.480Z,12.13
2019-03-19T11:21:23.952Z,12.02
2019-03-19T11:31:23.970Z,14.12
2019-03-19T11:41:24.497Z,14.32
2019-03-19T11:51:23.165Z,15.46
2019-03-19T12:01:23.134Z,14.02
2019-03-19T12:11:23.213Z,15.00
2019-03-19T12:21:23.387Z,13.57
2019-03-19T12:31:23.160Z,15.81
2019-03-19T12:41:26.813Z,15.06
2019-03-19T12:51:25.048Z,12.28
2019-03-19T13:01:23.288Z,14.19
2019-03-19T13:11:23.448Z,16.32
2019-03-19T13:21:23.112Z,16.09
2019-03-19T13:31:24.191Z,14.77
2019-03-19T13:41:24.161Z,13.12
2019-03-19T13:51:25.041Z,14.73
2019-03-19T14:01:23.388Z,14.65
2019-03-19T14:11:23.194Z,13.56
2019-03-19T14:21:23.118Z,12.51
2019-03-19T14:31:23.211Z,11.92
2019-03-19T14:41:24.651Z,11.68
2019-03-19T14:51:23.195Z,11.85
2019-03-19T15:01:23.303Z,12.08
2019-03-19T15:21:43.524Z,11.70
2019-03-19T15:31:43.190Z,10.98
2019-03-19T15:41:44.312Z,10.99
2019-03-19T15:51:43.198Z,11.03
2019-03-19T16:01:43.731Z,10.80
2019-03-19T16:11:46.571Z,10.88
2019-03-19T16:21:43.222Z,10.52
2019-03-19T16:31:50.703Z,10.37
2019-03-19T16:41:44.013Z,10.30
2019-03-19T16:51:43.333Z,9.99
2019-03-19T17:01:43.175Z,9.95
2019-03-19T17:11:43.111Z,9.83
2019-03-19T17:21:44.501Z,9.59
2019-03-19T17:31:43.233Z,9.29
2019-03-19T17:41:44.413Z,9.08
2019-03-19T17:51:44.190Z,8.91
2019-03-19T18:01:43.989Z,8.89
2019-03-19T18:11:43.264Z,8.79
2019-03-19T18:21:43.235Z,8.70
2019-03-19T18:31:43.337Z,8.45
2019-03-19T18:41:43.157Z,7.87
2019-03-19T18:51:43.231Z,7.34
2019-03-19T19:01:43.257Z,7.05
2019-03-19T19:11:43.280Z,7.00
2019-03-19T19:21:43.170Z,6.65
2019-03-19T19:31:43.240Z,6.07
2019-03-19T19:41:43.197Z,5.63
2019-03-19T19:51:44.263Z,5.08
2019-03-19T20:01:43.152Z,4.75
2019-03-19T20:11:43.210Z,4.40
2019-03-19T20:21:43.202Z,4.19
2019-03-19T20:31:43.229Z,3.89
2019-03-19T20:41:50.825Z,3.71
2019-03-19T21:11:44.369Z,3.27
2019-03-19T21:21:44.456Z,3.25
2019-03-19T21:31:44.482Z,2.95
2019-03-19T21:41:44.441Z,2.69
2019-03-19T21:51:44.390Z,2.57
2019-03-19T22:01:44.487Z,2.58
2019-03-19T22:11:44.444Z,2.44
2019-03-19T22:21:44.419Z,2.13
2019-03-19T22:31:44.429Z,1.88
2019-03-19T22:41:44.453Z,1.76
2019-03-19T22:51:44.501Z,1.57
2019-03-19T23:01:44.384Z,1.41
2019-03-19T23:11:44.473Z,1.31
2019-03-19T23:21:44.459Z,1.12
2019-03-19T23:31:44.465Z,1.03
2019-03-19T23:41:44.347Z,1.10
2019-03-19T23:51:44.551Z,1.01
